Time;durP1;ratioP1;P1;durP2;ratioP2;P2;SDS_P1;SDS_P2;PMS_P1;PMS_P2;Temp;Humidity;BMP_temperature;BMP_pressure;BME280_temperature;BME280_humidity;BME280_pressure;Samples;Min_cycle;Max_cycle;Signal;HPM_P1;HPM_P2
2022/06/15 00:01:22;;;;;;;1.20;0.93;;;21.40;46.10;;;;;;5034289;28;20324;-77
2022/06/15 00:03:49;;;;;;;1.55;1.15;;;21.40;46.20;;;;;;5032706;28;20022;-77
2022/06/15 00:06:24;;;;;;;1.83;0.98;;;21.30;46.10;;;;;;5033411;28;20025;-77
2022/06/15 00:08:52;;;;;;;1.30;0.98;;;21.30;46.20;;;;;;5033867;28;20025;-78
2022/06/15 00:11:34;;;;;;;1.45;1.17;;;21.30;46.30;;;;;;5033702;28;20026;-77
2022/06/15 00:14:08;;;;;;;2.60;1.15;;;21.30;46.30;;;;;;5036088;28;20030;-78
2022/06/15 00:16:34;;;;;;;1.13;1.02;;;21.20;46.30;;;;;;5035457;28;20120;-77
2022/06/15 00:19:00;;;;;;;1.38;1.10;;;21.20;46.30;;;;;;5034682;28;20052;-77
2022/06/15 00:21:26;;;;;;;1.98;1.00;;;21.20;46.40;;;;;;5032891;28;20065;-77
2022/06/15 00:23:52;;;;;;;1.48;1.10;;;21.10;46.40;;;;;;5034110;28;20029;-78
2022/06/15 00:26:18;;;;;;;1.30;1.10;;;21.10;46.50;;;;;;5032667;28;20029;-77
2022/06/15 00:28:44;;;;;;;1.67;1.17;;;21.10;46.50;;;;;;5032669;28;20029;-77
2022/06/15 00:31:10;;;;;;;1.50;1.13;;;21.00;46.50;;;;;;5032560;28;20040;-77
2022/06/15 00:33:36;;;;;;;1.63;1.25;;;21.00;46.60;;;;;;5032209;28;20053;-77
2022/06/15 00:36:15;;;;;;;1.38;0.95;;;21.00;46.70;;;;;;5065742;28;20033;-77
2022/06/15 00:38:47;;;;;;;1.10;1.00;;;20.90;46.70;;;;;;5033592;28;20057;-77
2022/06/15 00:41:24;;;;;;;2.47;1.30;;;20.90;46.70;;;;;;5048458;28;20037;-77
2022/06/15 00:43:59;;;;;;;2.22;1.00;;;20.90;46.80;;;;;;5033501;28;20075;-77
2022/06/15 00:46:37;;;;;;;1.23;1.00;;;20.80;46.80;;;;;;5066705;28;20028;-77
2022/06/15 00:49:24;;;;;;;1.58;1.27;;;20.80;46.90;;;;;;5032387;28;20025;-77
2022/06/15 00:51:56;;;;;;;1.10;1.00;;;20.80;47.00;;;;;;5032106;28;20119;-77
2022/06/15 00:54:23;;;;;;;1.52;1.20;;;20.70;46.90;;;;;;5032944;28;20021;-77
2022/06/15 00:56:50;;;;;;;1.60;0.90;;;20.70;46.90;;;;;;5033480;28;20025;-78
2022/06/15 00:59:28;;;;;;;1.55;1.05;;;20.70;47.00;;;;;;5033505;28;20038;-77
2022/06/15 01:01:54;;;;;;;2.25;1.25;;;20.60;47.00;;;;;;5034011;28;20044;-77
2022/06/15 01:04:21;;;;;;;1.13;1.00;;;20.60;47.10;;;;;;5032153;28;20017;-77
2022/06/15 01:07:16;;;;;;;1.35;1.05;;;20.60;47.10;;;;;;5065458;28;20045;-77
2022/06/15 01:09:46;;;;;;;;;;;20.50;47.20;;;;;;5044494;28;20033;-77
2022/06/15 01:12:21;;;;;;;1.17;1.00;;;20.50;47.10;;;;;;5031933;28;19905;-77
2022/06/15 01:15:16;;;;;;;1.10;1.00;;;20.50;47.20;;;;;;5048973;28;20033;-77
2022/06/15 01:18:00;;;;;;;1.20;1.10;;;20.40;47.20;;;;;;5032797;28;20469;-77
2022/06/15 01:20:45;;;;;;;1.85;1.20;;;20.40;47.30;;;;;;5033659;28;20120;-77
2022/06/15 01:23:49;;;;;;;1.27;1.00;;;20.40;47.30;;;;;;5049076;28;20083;-77
2022/06/15 01:26:47;;;;;;;1.48;1.20;;;20.30;47.50;;;;;;5033235;28;20414;-77
2022/06/15 01:29:49;;;;;;;1.38;1.00;;;20.30;47.50;;;;;;5032190;28;20026;-77
2022/06/15 01:32:31;;;;;;;1.35;1.15;;;20.20;47.60;;;;;;5064994;28;20029;-78
2022/06/15 01:35:17;;;;;;;1.73;1.23;;;20.20;47.60;;;;;;5048616;28;20041;-77
2022/06/15 01:38:19;;;;;;;1.30;1.13;;;20.20;47.70;;;;;;5032558;28;20028;-77
2022/06/15 01:40:49;;;;;;;1.35;1.20;;;20.10;47.60;;;;;;5047017;28;20041;-77
2022/06/15 01:43:19;;;;;;;1.40;1.30;;;20.10;47.70;;;;;;5031666;28;20024;-77
2022/06/15 01:45:47;;;;;;;2.78;1.38;;;20.10;47.70;;;;;;5051739;28;20112;-77
2022/06/15 01:48:17;;;;;;;1.70;1.20;;;20.00;47.80;;;;;;5051580;28;20112;-77
2022/06/15 01:50:51;;;;;;;1.70;1.20;;;20.00;47.80;;;;;;5051719;28;20036;-77
2022/06/15 01:53:28;;;;;;;1.83;1.20;;;20.00;47.90;;;;;;5035265;28;20056;-77
2022/06/15 01:56:05;;;;;;;1.38;1.10;;;20.00;47.90;;;;;;5069155;28;20116;-77
2022/06/15 01:58:31;;;;;;;;;;;20.00;47.90;;;;;;5052498;28;20501;-78
2022/06/15 02:01:20;;;;;;;1.20;1.00;;;19.90;47.80;;;;;;5051721;28;19999;-77
2022/06/15 02:04:08;;;;;;;1.23;1.00;;;19.90;47.90;;;;;;5068654;28;20474;-78
2022/06/15 02:06:48;;;;;;;1.90;1.02;;;19.80;47.90;;;;;;5068442;28;20492;-77
2022/06/15 02:09:32;;;;;;;1.38;1.02;;;19.90;48.00;;;;;;5068417;28;20033;-77
2022/06/15 02:12:01;;;;;;;1.55;1.00;;;19.80;48.20;;;;;;5051552;28;20029;-77
2022/06/15 02:14:39;;;;;;;2.03;1.30;;;19.80;48.10;;;;;;5057089;28;20024;-77
2022/06/15 02:17:07;;;;;;;1.88;1.40;;;19.80;48.20;;;;;;5058907;28;20024;-77
2022/06/15 02:19:40;;;;;;;1.75;1.30;;;19.70;48.20;;;;;;5074759;28;20020;-77
2022/06/15 02:22:12;;;;;;;1.20;1.10;;;19.70;48.30;;;;;;5051261;28;20138;-77
2022/06/15 02:24:40;;;;;;;1.75;1.23;;;19.70;48.30;;;;;;5053940;28;20110;-81
2022/06/15 02:27:08;;;;;;;2.25;1.20;;;19.60;48.30;;;;;;5038694;28;20032;-77
2022/06/15 02:29:37;;;;;;;1.63;1.23;;;19.60;48.40;;;;;;5052965;28;20029;-77
2022/06/15 02:32:08;;;;;;;1.40;1.20;;;19.60;48.40;;;;;;5064687;28;20052;-77
2022/06/15 02:34:34;;;;;;;1.70;1.20;;;19.60;48.50;;;;;;5069245;28;20060;-77
2022/06/15 02:37:00;;;;;;;1.63;1.30;;;19.60;48.40;;;;;;5055840;28;20029;-77
2022/06/15 02:39:26;;;;;;;2.72;1.40;;;19.60;48.50;;;;;;5020185;28;20546;-77
2022/06/15 02:41:59;;;;;;;1.50;1.17;;;19.50;48.50;;;;;;5056567;28;20552;-77
2022/06/15 02:44:30;;;;;;;1.75;1.40;;;19.50;48.60;;;;;;5056949;28;20124;-77
2022/06/15 02:46:58;;;;;;;1.70;1.30;;;19.50;48.60;;;;;;5054146;28;20033;-77
2022/06/15 02:49:25;;;;;;;1.75;1.50;;;19.50;48.60;;;;;;5037644;28;20024;-77
2022/06/15 02:52:02;;;;;;;2.53;1.20;;;19.50;49.30;;;;;;5035646;28;20033;-77
2022/06/15 02:54:43;;;;;;;1.98;1.40;;;19.40;48.70;;;;;;5055192;28;20064;-77
2022/06/15 02:57:16;;;;;;;1.30;1.20;;;19.40;48.70;;;;;;5053841;28;20515;-77
2022/06/15 02:59:45;;;;;;;1.88;1.30;;;19.40;48.80;;;;;;5038148;28;20029;-77
2022/06/15 03:02:14;;;;;;;2.92;1.50;;;19.30;48.70;;;;;;5053735;28;20382;-77
2022/06/15 03:04:43;;;;;;;1.70;1.40;;;19.30;48.70;;;;;;5037928;28;20402;-77
2022/06/15 03:07:11;;;;;;;2.67;1.38;;;19.30;48.70;;;;;;5053908;28;20021;-77
2022/06/15 03:09:39;;;;;;;1.77;1.23;;;19.30;48.80;;;;;;5070195;28;20342;-77
2022/06/15 03:12:07;;;;;;;1.45;1.23;;;19.30;48.80;;;;;;5054464;28;20171;-78
2022/06/15 03:14:36;;;;;;;1.20;1.10;;;19.20;48.80;;;;;;5037255;28;20104;-78
2022/06/15 03:17:04;;;;;;;1.50;1.20;;;19.20;48.80;;;;;;5038086;28;20049;-77
2022/06/15 03:19:43;;;;;;;2.65;1.40;;;19.20;48.90;;;;;;5038590;28;20036;-77
2022/06/15 03:29:00;;;;;;;2.45;1.42;;;19.10;49.00;;;;;;4891964;29;20592;-78
2022/06/15 03:35:34;;;;;;;1.30;1.20;;;19.00;49.10;;;;;;4894920;29;20123;-78
2022/06/15 03:38:31;;;;;;;1.45;1.27;;;19.00;49.00;;;;;;4899603;29;20504;-79
2022/06/15 03:41:44;;;;;;;1.73;1.23;;;18.90;49.10;;;;;;4890688;29;20123;-80
2022/06/15 03:44:19;;;;;;;2.25;1.20;;;18.90;49.10;;;;;;4893516;29;20076;-79
2022/06/15 03:46:47;;;;;;;2.15;1.38;;;18.90;49.10;;;;;;4878384;29;20489;-78
2022/06/15 03:49:24;;;;;;;1.50;1.40;;;18.80;49.10;;;;;;4879812;29;20033;-78
2022/06/15 03:51:57;;;;;;;1.70;1.33;;;18.80;49.20;;;;;;4877835;29;20738;-78
2022/06/15 03:55:05;;;;;;;1.52;1.40;;;18.80;49.20;;;;;;4893547;29;20092;-80
2022/06/15 03:57:38;;;;;;;1.40;1.25;;;18.80;49.30;;;;;;4888647;29;20055;-81
2022/06/15 04:00:29;;;;;;;1.40;1.10;;;18.80;49.30;;;;;;4878003;29;20051;-80
2022/06/15 04:03:04;;;;;;;1.42;1.23;;;18.70;49.40;;;;;;4908100;29;20079;-79
2022/06/15 04:05:57;;;;;;;1.65;1.20;;;18.80;49.40;;;;;;4894312;29;20487;-79
2022/06/15 04:08:42;;;;;;;1.77;1.30;;;18.70;49.40;;;;;;4904228;29;20029;-78
2022/06/15 04:14:28;;;;;;;2.08;1.30;;;18.70;49.50;;;;;;4895024;29;20108;-84
2022/06/15 04:17:10;;;;;;;2.10;1.38;;;18.60;49.50;;;;;;4893695;29;20489;-78
2022/06/15 04:23:40;;;;;;;1.15;1.10;;;18.60;49.60;;;;;;4893625;29;20100;-78
2022/06/15 04:26:14;;;;;;;1.45;1.27;;;18.60;49.60;;;;;;4907644;29;20191;-82
2022/06/15 04:28:47;;;;;;;2.60;1.20;;;18.60;49.60;;;;;;4864286;29;20052;-83
2022/06/15 04:31:19;;;;;;;1.67;1.20;;;18.50;49.60;;;;;;4877380;29;20045;-84
2022/06/15 04:33:45;;;;;;;1.70;1.30;;;18.50;49.70;;;;;;4877125;29;20096;-87
2022/06/15 04:36:14;;;;;;;1.40;1.23;;;18.50;49.80;;;;;;4877532;29;20060;-84
2022/06/15 04:38:43;;;;;;;1.35;1.25;;;18.50;49.80;;;;;;4894103;29;20155;-84
2022/06/15 04:41:10;;;;;;;1.73;1.20;;;18.50;49.80;;;;;;4877405;29;20067;-84
2022/06/15 04:43:38;;;;;;;2.08;1.30;;;18.40;49.80;;;;;;4908910;29;20033;-83
2022/06/15 04:46:10;;;;;;;2.25;1.48;;;18.50;49.90;;;;;;4909292;29;20051;-83
2022/06/15 04:48:36;;;;;;;1.83;1.15;;;18.40;50.00;;;;;;4895703;29;20067;-83
2022/06/15 04:51:21;;;;;;;1.80;1.27;;;18.40;50.00;;;;;;4877165;29;20098;-83
2022/06/15 04:53:52;;;;;;;2.00;1.20;;;18.40;50.10;;;;;;4909387;29;20140;-81
2022/06/15 04:56:19;;;;;;;2.50;1.50;;;18.40;50.10;;;;;;4895129;29;20100;-85
2022/06/15 04:58:46;;;;;;;1.50;1.35;;;18.40;50.70;;;;;;4909087;29;20080;-86
2022/06/15 05:01:15;;;;;;;2.15;1.45;;;18.40;50.20;;;;;;4909796;29;20036;-83
2022/06/15 05:03:42;;;;;;;2.00;1.20;;;18.40;49.70;;;;;;4893900;29;20041;-84
2022/06/15 05:06:33;;;;;;;1.50;1.17;;;18.40;50.30;;;;;;4877411;29;20048;-83
2022/06/15 05:09:00;;;;;;;2.33;1.50;;;18.40;50.30;;;;;;4880707;29;20037;-85
2022/06/15 05:11:28;;;;;;;1.80;1.25;;;18.40;50.30;;;;;;4875924;29;20036;-83
2022/06/15 05:13:54;;;;;;;1.65;1.17;;;18.40;50.30;;;;;;4892564;29;20064;-82
2022/06/15 05:16:22;;;;;;;2.17;1.20;;;18.40;50.40;;;;;;4908597;29;20025;-83
2022/06/15 05:18:50;;;;;;;1.92;1.30;;;18.40;50.40;;;;;;4891696;29;20025;-82
2022/06/15 05:21:22;;;;;;;1.75;1.10;;;18.40;50.40;;;;;;4896730;29;20051;-84
2022/06/15 05:23:50;;;;;;;2.33;1.30;;;18.30;50.40;;;;;;4895211;29;20041;-84
2022/06/15 05:26:26;;;;;;;1.30;1.20;;;18.30;50.50;;;;;;4907474;29;20025;-83
2022/06/15 05:28:53;;;;;;;1.55;1.20;;;18.30;50.40;;;;;;4891668;29;20128;-82
2022/06/15 05:31:21;;;;;;;1.30;1.17;;;18.30;50.50;;;;;;4909947;29;20171;-81
2022/06/15 05:33:56;;;;;;;2.03;1.50;;;18.30;51.20;;;;;;4894631;29;20032;-83
2022/06/15 05:36:25;;;;;;;2.33;1.33;;;18.30;50.50;;;;;;4912493;29;20020;-84
2022/06/15 05:38:51;;;;;;;1.58;1.30;;;18.30;50.60;;;;;;4901043;29;20028;-84
2022/06/15 05:41:18;;;;;;;1.60;1.40;;;18.40;50.60;;;;;;4896766;29;20032;-83
2022/06/15 05:43:50;;;;;;;1.38;1.27;;;18.40;50.70;;;;;;4896685;29;20181;-82
2022/06/15 05:46:31;;;;;;;1.40;1.25;;;18.30;50.70;;;;;;4894513;29;20029;-84
2022/06/15 05:49:11;;;;;;;1.42;1.00;;;18.30;50.80;;;;;;4910794;29;20049;-84
2022/06/15 05:51:37;;;;;;;2.05;1.27;;;18.40;50.70;;;;;;4908452;29;20108;-85
2022/06/15 05:54:05;;;;;;;1.75;1.25;;;18.40;50.70;;;;;;4880457;29;20242;-83
2022/06/15 05:56:33;;;;;;;1.17;1.10;;;18.40;50.70;;;;;;4887790;29;20124;-83
2022/06/15 05:59:00;;;;;;;1.33;1.20;;;18.40;50.80;;;;;;4909099;29;20036;-88
2022/06/15 06:01:36;;;;;;;1.30;1.20;;;18.40;50.80;;;;;;4881267;29;20039;-79
2022/06/15 06:04:05;;;;;;;1.83;1.35;;;18.40;50.90;;;;;;4894042;29;20504;-81
2022/06/15 06:06:39;;;;;;;1.45;1.20;;;18.40;50.80;;;;;;4894908;29;20039;-83
2022/06/15 06:09:11;;;;;;;1.25;1.10;;;18.40;51.00;;;;;;4895766;29;20029;-81
2022/06/15 06:11:37;;;;;;;1.35;1.08;;;18.40;50.90;;;;;;4911478;29;20025;-82
2022/06/15 06:14:03;;;;;;;2.10;1.35;;;18.40;50.90;;;;;;4895336;29;20095;-84
2022/06/15 06:16:29;;;;;;;2.17;1.23;;;18.40;50.90;;;;;;4882378;29;20485;-86
2022/06/15 06:18:55;;;;;;;1.30;1.20;;;18.40;51.00;;;;;;4911301;29;20029;-84
2022/06/15 06:21:21;;;;;;;1.98;1.23;;;18.40;51.00;;;;;;4911701;29;20171;-83
2022/06/15 06:23:47;;;;;;;1.30;1.20;;;18.50;51.10;;;;;;4893373;29;20501;-83
2022/06/15 06:26:39;;;;;;;1.52;1.20;;;18.50;51.10;;;;;;4890854;29;20031;-83
2022/06/15 06:29:15;;;;;;;1.33;1.15;;;18.50;51.20;;;;;;4891016;29;20094;-85
2022/06/15 06:31:42;;;;;;;1.60;1.20;;;18.50;51.10;;;;;;4895927;29;20039;-85
2022/06/15 06:34:10;;;;;;;1.65;1.27;;;18.50;51.10;;;;;;4893414;29;20084;-84
2022/06/15 06:36:42;;;;;;;1.35;1.20;;;18.50;51.10;;;;;;4910643;29;20044;-84
2022/06/15 06:39:17;;;;;;;1.20;1.10;;;18.50;51.20;;;;;;4891551;29;20067;-86
2022/06/15 06:41:43;;;;;;;1.92;1.30;;;18.50;51.20;;;;;;4911018;29;20040;-84
2022/06/15 06:44:11;;;;;;;1.88;1.20;;;18.50;51.10;;;;;;4896596;29;20043;-87
2022/06/15 06:46:41;;;;;;;1.92;1.48;;;18.60;51.30;;;;;;4894548;29;20107;-83
2022/06/15 06:49:07;;;;;;;1.75;1.30;;;18.50;51.20;;;;;;4910075;29;20580;-83
2022/06/15 06:51:35;;;;;;;1.38;1.10;;;18.50;51.20;;;;;;4896153;29;20123;-83
2022/06/15 06:54:02;;;;;;;1.83;1.13;;;18.60;51.30;;;;;;4909660;29;20536;-85
2022/06/15 06:56:28;;;;;;;1.42;1.20;;;18.60;51.30;;;;;;4892109;29;20017;-83
2022/06/15 06:58:54;;;;;;;3.13;1.40;;;18.60;51.30;;;;;;4901521;29;20082;-83
2022/06/15 07:01:20;;;;;;;3.67;1.25;;;18.60;51.30;;;;;;4892480;29;20489;-82
2022/06/15 07:03:47;;;;;;;1.40;1.30;;;18.60;51.30;;;;;;4895323;29;20032;-83
2022/06/15 07:06:13;;;;;;;1.67;1.20;;;18.70;51.30;;;;;;4910941;29;20111;-84
2022/06/15 07:08:39;;;;;;;1.42;1.13;;;18.70;51.30;;;;;;4890867;29;20036;-84
2022/06/15 07:11:10;;;;;;;2.42;1.30;;;18.70;51.30;;;;;;4910752;29;20177;-86
2022/06/15 07:13:36;;;;;;;1.95;1.20;;;18.70;51.40;;;;;;4904810;29;20028;-84
2022/06/15 07:16:04;;;;;;;3.33;1.55;;;18.70;51.30;;;;;;4910663;29;20055;-82
2022/06/15 07:18:30;;;;;;;2.15;1.20;;;18.80;51.40;;;;;;4908826;29;20041;-83
2022/06/15 07:21:01;;;;;;;1.02;1.00;;;18.80;51.40;;;;;;4896005;29;20040;-85
2022/06/15 07:23:27;;;;;;;2.05;1.20;;;18.90;51.50;;;;;;4895926;29;20496;-83
2022/06/15 07:25:53;;;;;;;3.88;1.30;;;18.90;51.40;;;;;;4879154;29;20040;-82
2022/06/15 07:28:19;;;;;;;1.67;1.30;;;18.90;51.40;;;;;;4894331;29;20064;-84
2022/06/15 07:30:45;;;;;;;2.58;1.58;;;18.90;51.40;;;;;;4896643;29;20449;-82
2022/06/15 07:33:10;;;;;;;1.90;1.20;;;19.00;51.30;;;;;;4880950;29;20032;-83
2022/06/15 07:35:38;;;;;;;1.95;1.30;;;19.10;51.40;;;;;;4877742;29;20025;-82
2022/06/15 07:38:13;;;;;;;1.98;1.27;;;19.10;51.30;;;;;;4892977;29;20062;-83
2022/06/15 07:40:57;;;;;;;2.95;1.17;;;19.20;51.30;;;;;;4879817;29;20497;-86
2022/06/15 07:43:35;;;;;;;2.00;1.20;;;19.20;51.20;;;;;;4889904;29;20048;-84
2022/06/15 07:46:02;;;;;;;1.65;1.17;;;19.30;51.20;;;;;;4909727;29;20050;-87
2022/06/15 07:51:50;;;;;;;1.75;1.02;;;19.40;51.00;;;;;;4895485;29;20033;-83
2022/06/15 07:55:04;;;;;;;1.40;1.17;;;19.50;51.10;;;;;;4907536;29;20053;-83
2022/06/15 07:57:38;;;;;;;1.65;1.20;;;19.60;51.00;;;;;;4890818;29;20029;-84
2022/06/15 08:00:49;;;;;;;1.38;1.10;;;19.70;50.80;;;;;;4886268;29;20389;-84
2022/06/15 08:04:14;;;;;;;1.85;1.20;;;19.80;51.00;;;;;;4896323;29;20056;-84
2022/06/15 08:06:45;;;;;;;1.65;1.20;;;19.80;50.90;;;;;;4911441;29;20260;-84
2022/06/15 08:09:14;;;;;;;2.85;1.20;;;20.00;50.70;;;;;;4895955;29;20031;-81
2022/06/15 08:14:27;;;;;;;2.83;1.40;;;20.10;50.60;;;;;;4893431;29;20040;-83
2022/06/15 08:16:54;;;;;;;2.75;1.10;;;20.20;50.60;;;;;;4895306;29;20028;-86
2022/06/15 08:19:20;;;;;;;2.95;1.30;;;20.30;50.60;;;;;;4907765;29;20728;-83
2022/06/15 08:21:46;;;;;;;1.70;1.20;;;20.40;50.50;;;;;;4879798;29;20124;-83
2022/06/15 08:24:12;;;;;;;1.15;1.08;;;20.40;50.40;;;;;;4894812;29;20045;-84
2022/06/15 08:26:38;;;;;;;1.58;1.20;;;20.60;50.40;;;;;;4910981;29;20029;-85
2022/06/15 08:29:10;;;;;;;1.17;1.00;;;20.60;50.30;;;;;;4894823;29;20508;-82
2022/06/15 08:31:36;;;;;;;2.88;1.40;;;20.70;50.30;;;;;;4910127;29;20024;-84
2022/06/15 08:34:03;;;;;;;1.65;1.10;;;20.90;50.20;;;;;;4894405;29;20393;-84
2022/06/15 08:36:30;;;;;;;1.17;1.00;;;20.90;50.10;;;;;;4890789;29;20737;-84
2022/06/15 08:38:56;;;;;;;2.15;1.25;;;21.00;50.10;;;;;;4885033;29;20021;-84
2022/06/15 08:41:48;;;;;;;2.70;1.20;;;21.10;50.00;;;;;;4904813;29;20038;-83
2022/06/15 08:44:55;;;;;;;1.20;1.10;;;21.20;50.10;;;;;;4893775;29;20032;-85
2022/06/15 08:47:57;;;;;;;1.17;0.90;;;21.30;50.00;;;;;;4806388;29;20041;-88
2022/06/15 08:50:35;;;;;;;1.50;1.02;;;21.40;49.90;;;;;;4820493;29;20049;-80
2022/06/15 08:53:15;;;;;;;1.00;0.90;;;21.50;49.80;;;;;;4884487;29;20055;-83
2022/06/15 08:55:53;;;;;;;1.58;1.08;;;21.60;49.80;;;;;;4894965;29;20556;-80
2022/06/15 08:58:32;;;;;;;0.90;0.90;;;21.80;49.90;;;;;;4898065;29;20513;-80
2022/06/15 09:01:07;;;;;;;1.67;1.10;;;21.90;49.80;;;;;;4900072;29;20043;-81
2022/06/15 09:03:40;;;;;;;0.93;0.90;;;22.00;49.70;;;;;;4891295;29;20119;-81
2022/06/15 09:06:31;;;;;;;2.03;0.90;;;22.10;49.70;;;;;;4908502;29;20470;-82
2022/06/15 09:08:57;;;;;;;1.42;1.10;;;22.20;49.70;;;;;;4898440;29;20108;-80
2022/06/15 09:11:45;;;;;;;2.00;1.20;;;22.30;49.50;;;;;;4882589;29;20039;-79
2022/06/15 09:14:22;;;;;;;1.58;1.02;;;22.40;49.70;;;;;;4897563;29;20028;-84
2022/06/15 09:17:04;;;;;;;1.20;1.00;;;22.50;49.50;;;;;;4888717;29;20450;-80
2022/06/15 09:19:36;;;;;;;2.00;0.98;;;22.60;49.50;;;;;;4906347;29;20037;-85
2022/06/15 09:22:11;;;;;;;2.28;1.13;;;22.70;49.40;;;;;;4898337;29;20485;-83
2022/06/15 09:24:48;;;;;;;0.93;0.80;;;22.80;49.30;;;;;;4898071;29;20040;-79
2022/06/15 09:27:31;;;;;;;1.88;1.15;;;22.90;49.20;;;;;;4897878;29;20425;-79
2022/06/15 09:30:04;;;;;;;1.20;1.10;;;23.10;49.30;;;;;;4897759;29;20037;-81
2022/06/15 09:32:51;;;;;;;1.63;1.17;;;23.20;49.20;;;;;;4896087;29;20039;-81
2022/06/15 09:35:28;;;;;;;2.50;1.00;;;23.30;49.30;;;;;;4880743;29;20048;-82
2022/06/15 09:37:57;;;;;;;1.15;1.02;;;23.40;49.30;;;;;;4898297;29;20017;-83
2022/06/15 09:40:32;;;;;;;3.60;1.42;;;23.50;49.20;;;;;;4912866;29;20334;-82
2022/06/15 09:43:16;;;;;;;1.50;1.00;;;23.60;49.20;;;;;;4913185;29;20024;-80
2022/06/15 09:46:04;;;;;;;0.98;0.80;;;23.70;49.00;;;;;;4898558;29;20068;-81
2022/06/15 09:48:54;;;;;;;1.42;1.05;;;23.80;49.10;;;;;;4909499;29;20087;-83
2022/06/15 09:51:54;;;;;;;1.50;1.10;;;23.90;49.00;;;;;;4898134;29;20043;-83
2022/06/15 09:54:58;;;;;;;1.30;0.80;;;24.00;48.90;;;;;;4908613;29;20044;-89
2022/06/15 09:57:24;;;;;;;2.13;1.00;;;24.20;48.90;;;;;;4880101;29;20039;-83
2022/06/15 09:59:50;;;;;;;1.33;1.00;;;24.30;48.70;;;;;;4880463;29;20036;-82
2022/06/15 10:02:28;;;;;;;1.73;1.00;;;24.40;48.70;;;;;;4880221;29;20040;-83
2022/06/15 10:04:56;;;;;;;1.00;0.95;;;24.50;48.70;;;;;;4891340;29;20040;-83
2022/06/15 10:07:39;;;;;;;1.13;1.00;;;24.60;48.50;;;;;;4912083;29;20033;-83
2022/06/15 10:10:43;;;;;;;1.55;1.02;;;24.70;48.50;;;;;;4913101;29;20028;-82
2022/06/15 10:13:15;;;;;;;1.35;1.00;;;24.80;48.40;;;;;;4891096;29;20379;-84
2022/06/15 10:15:41;;;;;;;1.90;1.13;;;24.90;48.20;;;;;;4897214;29;20496;-83
2022/06/15 10:18:30;;;;;;;1.48;1.00;;;25.00;48.10;;;;;;4881549;29;20112;-83
2022/06/15 10:21:06;;;;;;;0.77;0.77;;;25.10;48.20;;;;;;4913241;29;20137;-84
2022/06/15 10:23:40;;;;;;;1.30;0.90;;;25.20;48.10;;;;;;4913225;29;20068;-84
2022/06/15 10:26:10;;;;;;;1.20;1.00;;;25.30;48.00;;;;;;4897985;29;20028;-84
2022/06/15 10:28:39;;;;;;;1.17;1.00;;;25.40;47.90;;;;;;4879295;29;20387;-85
2022/06/15 10:31:11;;;;;;;1.80;1.10;;;25.50;47.80;;;;;;4911108;29;20028;-83
2022/06/15 10:33:40;;;;;;;1.63;1.00;;;25.60;47.80;;;;;;4894993;29;20119;-84
2022/06/15 10:36:30;;;;;;;1.10;0.88;;;25.70;47.80;;;;;;4895560;29;20029;-83
2022/06/15 10:39:24;;;;;;;2.22;1.27;;;25.80;47.80;;;;;;4911622;29;20031;-82
2022/06/15 10:41:50;;;;;;;1.00;0.90;;;25.90;47.60;;;;;;4896059;29;20047;-88
2022/06/15 10:44:27;;;;;;;0.80;0.80;;;26.00;47.40;;;;;;4894610;29;20029;-83
2022/06/15 10:47:07;;;;;;;1.08;0.98;;;26.10;47.40;;;;;;4911142;29;20025;-83
2022/06/15 10:49:41;;;;;;;1.83;1.08;;;26.20;47.30;;;;;;4890030;29;20665;-84
2022/06/15 10:52:37;;;;;;;1.30;0.90;;;26.30;47.20;;;;;;4894596;29;20096;-87
2022/06/15 11:04:21;;;;;;;2.20;1.05;;;26.70;46.90;;;;;;4894754;29;20037;-87
2022/06/15 11:06:52;;;;;;;1.20;1.00;;;26.70;47.30;;;;;;4910736;29;20100;-82
2022/06/15 11:09:20;;;;;;;1.45;1.10;;;26.80;47.20;;;;;;4894470;29;20029;-82
2022/06/15 11:11:47;;;;;;;2.42;1.30;;;26.80;46.50;;;;;;4909806;29;20469;-82
2022/06/15 11:14:31;;;;;;;1.25;0.93;;;26.90;46.50;;;;;;4895781;29;20092;-82
2022/06/15 11:20:04;;;;;;;1.05;0.90;;;27.00;46.40;;;;;;4901595;29;20390;-83
2022/06/15 11:22:31;;;;;;;1.00;0.90;;;27.10;46.40;;;;;;4894468;29;20036;-83
2022/06/15 11:25:06;;;;;;;1.50;1.00;;;27.10;46.40;;;;;;4879930;29;20036;-84
2022/06/15 11:27:44;;;;;;;2.35;1.08;;;27.20;46.50;;;;;;4910562;29;20032;-85
2022/06/15 11:30:13;;;;;;;1.50;1.10;;;27.20;46.50;;;;;;4890703;29;20119;-83
2022/06/15 11:32:51;;;;;;;1.60;0.93;;;27.20;46.30;;;;;;4895723;29;20756;-82
2022/06/15 11:35:25;;;;;;;1.35;1.00;;;27.20;46.40;;;;;;4897254;29;20111;-82
2022/06/15 11:38:04;;;;;;;1.67;1.02;;;27.30;46.50;;;;;;4880443;29;20229;-81
2022/06/15 11:40:32;;;;;;;1.37;0.83;;;27.30;46.40;;;;;;4910974;29;20060;-82
2022/06/15 11:43:00;;;;;;;1.67;1.02;;;27.30;46.50;;;;;;4880229;29;20557;-82
2022/06/15 11:45:32;;;;;;;1.55;1.00;;;27.30;46.40;;;;;;4890858;29;20462;-83
2022/06/15 11:48:14;;;;;;;1.58;1.00;;;27.40;46.40;;;;;;4894773;29;20053;-82
2022/06/15 11:51:07;;;;;;;1.63;1.00;;;27.40;46.30;;;;;;4911286;29;20469;-81
2022/06/15 11:54:08;;;;;;;1.38;0.80;;;27.40;46.30;;;;;;4887344;29;20033;-84
2022/06/15 11:56:46;;;;;;;1.38;0.80;;;27.40;46.20;;;;;;4890956;29;20120;-83
2022/06/15 11:59:38;;;;;;;1.75;0.90;;;27.40;46.30;;;;;;4911062;29;20033;-83
2022/06/15 12:02:22;;;;;;;2.30;1.10;;;27.40;46.50;;;;;;4910942;29;20044;-83
2022/06/15 12:04:51;;;;;;;1.30;0.82;;;27.40;46.60;;;;;;4880213;29;20048;-83
2022/06/15 12:07:48;;;;;;;1.33;0.98;;;27.40;46.50;;;;;;4880146;29;20111;-83
2022/06/15 12:10:32;;;;;;;0.98;0.98;;;27.40;46.60;;;;;;4863330;29;20100;-83
2022/06/15 12:13:12;;;;;;;1.42;0.90;;;27.50;46.90;;;;;;4877155;29;20040;-83
2022/06/15 12:15:45;;;;;;;1.33;0.90;;;27.40;46.70;;;;;;4895889;29;20028;-84
2022/06/15 12:18:50;;;;;;;2.08;1.10;;;27.50;46.80;;;;;;4893872;29;20029;-85
2022/06/15 12:21:31;;;;;;;1.50;0.88;;;27.40;46.90;;;;;;4880079;29;20048;-82
2022/06/15 12:24:15;;;;;;;1.67;1.00;;;27.50;46.70;;;;;;4888915;29;20032;-82
2022/06/15 12:27:04;;;;;;;1.45;0.90;;;27.40;46.50;;;;;;4894080;29;20033;-83
2022/06/15 12:29:54;;;;;;;1.00;0.82;;;27.50;46.50;;;;;;4910156;29;20063;-83
2022/06/15 12:32:36;;;;;;;0.88;0.75;;;27.40;46.60;;;;;;4893140;29;20032;-85
2022/06/15 12:35:32;;;;;;;1.33;0.82;;;27.40;46.40;;;;;;4892552;29;20030;-82
2022/06/15 12:38:11;;;;;;;1.77;0.95;;;27.40;46.30;;;;;;4909340;29;20081;-82
2022/06/15 12:40:44;;;;;;;1.45;1.00;;;27.40;46.30;;;;;;4895091;29;20025;-82
2022/06/15 12:43:28;;;;;;;1.17;1.00;;;27.40;46.20;;;;;;4906820;29;20436;-81
2022/06/15 12:46:08;;;;;;;1.02;0.90;;;27.40;46.20;;;;;;4892762;29;20465;-82
2022/06/15 12:48:43;;;;;;;1.25;0.85;;;27.40;46.10;;;;;;4910274;29;20031;-84
2022/06/15 12:51:27;;;;;;;1.10;0.98;;;27.40;46.00;;;;;;4910434;29;20442;-83
2022/06/15 12:54:35;;;;;;;1.60;0.95;;;27.40;46.00;;;;;;4894961;29;20509;-84
2022/06/15 12:57:16;;;;;;;1.35;1.00;;;27.40;46.20;;;;;;4873890;29;20037;-82
2022/06/15 13:00:02;;;;;;;1.10;0.93;;;27.40;46.50;;;;;;4910167;29;20492;-82
2022/06/15 13:02:43;;;;;;;1.88;1.00;;;27.40;46.20;;;;;;4900068;29;20520;-84
2022/06/15 13:05:25;;;;;;;1.63;1.00;;;27.40;46.10;;;;;;4894501;29;20532;-83
2022/06/15 13:08:22;;;;;;;0.88;0.80;;;27.30;46.00;;;;;;4894433;29;20053;-82
2022/06/15 13:10:53;;;;;;;1.55;1.00;;;27.30;46.10;;;;;;4893752;29;20047;-80
2022/06/15 13:13:35;;;;;;;1.45;1.20;;;27.40;46.10;;;;;;4895878;29;20131;-83
2022/06/15 13:16:09;;;;;;;1.13;0.90;;;27.40;46.20;;;;;;4889407;29;20036;-82
2022/06/15 13:18:48;;;;;;;1.88;1.00;;;27.30;46.20;;;;;;4893831;29;20053;-82
2022/06/15 13:21:26;;;;;;;1.10;0.70;;;27.30;46.20;;;;;;4891676;29;20060;-84
2022/06/15 13:24:08;;;;;;;1.35;0.90;;;27.40;46.20;;;;;;4892483;29;20114;-82
2022/06/15 13:26:41;;;;;;;1.67;1.00;;;27.30;46.10;;;;;;4873982;29;20481;-82
2022/06/15 13:29:10;;;;;;;1.25;1.00;;;27.30;46.80;;;;;;4887375;29;20052;-82
2022/06/15 13:31:50;;;;;;;1.30;1.08;;;27.30;46.20;;;;;;4893768;29;20036;-83
2022/06/15 13:34:34;;;;;;;1.10;0.80;;;27.30;46.20;;;;;;4878763;29;20037;-82
2022/06/15 13:37:15;;;;;;;0.63;0.63;;;27.40;46.30;;;;;;4893732;29;20036;-82
2022/06/15 13:39:50;;;;;;;1.33;0.90;;;27.30;46.20;;;;;;4877728;29;20040;-82
2022/06/15 13:42:41;;;;;;;1.63;1.17;;;27.30;46.20;;;;;;4892157;29;20119;-83
2022/06/15 13:45:10;;;;;;;1.00;0.90;;;27.30;46.30;;;;;;4898068;29;20037;-82
2022/06/15 13:47:59;;;;;;;1.35;1.10;;;27.30;46.20;;;;;;4882013;29;20055;-83
2022/06/15 13:50:44;;;;;;;1.50;0.90;;;27.30;46.30;;;;;;4891542;29;20028;-81
2022/06/15 13:53:43;;;;;;;1.27;0.88;;;27.30;46.20;;;;;;4881063;29;20036;-81
2022/06/15 13:56:29;;;;;;;2.08;1.30;;;27.30;46.20;;;;;;4895510;29;20040;-83
2022/06/15 13:59:19;;;;;;;1.10;1.00;;;27.30;46.10;;;;;;4894954;29;20219;-83
2022/06/15 14:02:11;;;;;;;2.22;1.00;;;27.30;46.20;;;;;;4901374;29;20039;-82
2022/06/15 14:05:02;;;;;;;1.25;0.85;;;27.30;46.20;;;;;;4891491;29;20119;-82
2022/06/15 14:08:06;;;;;;;1.25;1.08;;;27.30;46.20;;;;;;4896648;29;20025;-84
2022/06/15 14:11:02;;;;;;;0.85;0.82;;;27.30;46.20;;;;;;4895799;29;20029;-84